Terminal Aerodrome Forecast
Issued by NWS

Home | Current Version | Previous Version | Text Only | Print | Product List | Glossary On
Versions: 1 2 3 4 5 6 7 8 9 10 11 12
000
FTUS46 KSTO 041737
TAFMHR
TAF
KMHR 041737Z 0418/0518 20009KT P6SM SCT150 BKN250
     FM042000 21011KT P6SM SCT120 BKN250
     FM050600 20008KT P6SM SCT250
      TEMPO 0512/0516 OVC010=

USA.gov is the U.S. government's official web portal to all federal, state and local government web resources and services.